sensor_id;sensor_type;location;lat;lon;timestamp;P1;durP1;ratioP1;P2;durP2;ratioP2
56911;SDS011;42800;53.928;27.662;2024-01-30T00:02:09;12.70;;;7.10;;
56911;SDS011;42800;53.928;27.662;2024-01-30T00:04:36;15.55;;;6.90;;
56911;SDS011;42800;53.928;27.662;2024-01-30T00:07:02;11.93;;;6.63;;
56911;SDS011;42800;53.928;27.662;2024-01-30T00:09:28;15.50;;;8.10;;
56911;SDS011;42800;53.928;27.662;2024-01-30T00:11:54;10.50;;;6.57;;
56911;SDS011;42800;53.928;27.662;2024-01-30T00:14:20;13.23;;;7.25;;
56911;SDS011;42800;53.928;27.662;2024-01-30T00:16:46;12.88;;;7.75;;
56911;SDS011;42800;53.928;27.662;2024-01-30T00:19:12;14.55;;;7.22;;
56911;SDS011;42800;53.928;27.662;2024-01-30T00:21:39;12.77;;;7.72;;
56911;SDS011;42800;53.928;27.662;2024-01-30T00:24:06;13.00;;;7.55;;
56911;SDS011;42800;53.928;27.662;2024-01-30T00:26:32;9.40;;;5.85;;
56911;SDS011;42800;53.928;27.662;2024-01-30T00:28:58;11.45;;;7.57;;
56911;SDS011;42800;53.928;27.662;2024-01-30T00:31:24;14.55;;;7.47;;
56911;SDS011;42800;53.928;27.662;2024-01-30T00:33:50;15.38;;;7.13;;
56911;SDS011;42800;53.928;27.662;2024-01-30T00:36:17;17.17;;;8.38;;
56911;SDS011;42800;53.928;27.662;2024-01-30T00:38:43;17.48;;;7.95;;
56911;SDS011;42800;53.928;27.662;2024-01-30T00:41:10;14.75;;;8.02;;
56911;SDS011;42800;53.928;27.662;2024-01-30T00:43:36;13.10;;;8.63;;
56911;SDS011;42800;53.928;27.662;2024-01-30T00:46:02;13.15;;;8.25;;
56911;SDS011;42800;53.928;27.662;2024-01-30T00:48:28;16.55;;;8.30;;
56911;SDS011;42800;53.928;27.662;2024-01-30T00:50:55;12.77;;;8.13;;
56911;SDS011;42800;53.928;27.662;2024-01-30T00:53:21;11.20;;;7.53;;
56911;SDS011;42800;53.928;27.662;2024-01-30T00:55:48;16.27;;;8.65;;
56911;SDS011;42800;53.928;27.662;2024-01-30T00:58:14;18.38;;;9.63;;
56911;SDS011;42800;53.928;27.662;2024-01-30T01:00:40;15.95;;;7.72;;
56911;SDS011;42800;53.928;27.662;2024-01-30T01:03:06;17.33;;;8.82;;
56911;SDS011;42800;53.928;27.662;2024-01-30T01:05:32;17.25;;;8.98;;
56911;SDS011;42800;53.928;27.662;2024-01-30T01:07:58;16.27;;;9.73;;
56911;SDS011;42800;53.928;27.662;2024-01-30T01:10:24;16.88;;;9.15;;
56911;SDS011;42800;53.928;27.662;2024-01-30T01:12:51;12.55;;;8.90;;
56911;SDS011;42800;53.928;27.662;2024-01-30T01:15:17;16.83;;;8.77;;
56911;SDS011;42800;53.928;27.662;2024-01-30T01:17:43;16.95;;;9.35;;
56911;SDS011;42800;53.928;27.662;2024-01-30T01:20:09;15.02;;;8.95;;
56911;SDS011;42800;53.928;27.662;2024-01-30T01:22:36;18.90;;;9.68;;
56911;SDS011;42800;53.928;27.662;2024-01-30T01:25:04;14.13;;;8.35;;
56911;SDS011;42800;53.928;27.662;2024-01-30T01:27:32;15.45;;;8.80;;
56911;SDS011;42800;53.928;27.662;2024-01-30T01:30:00;17.27;;;9.50;;
56911;SDS011;42800;53.928;27.662;2024-01-30T01:32:26;19.20;;;10.13;;
56911;SDS011;42800;53.928;27.662;2024-01-30T01:34:52;16.40;;;9.18;;
56911;SDS011;42800;53.928;27.662;2024-01-30T01:37:19;18.20;;;9.05;;
56911;SDS011;42800;53.928;27.662;2024-01-30T01:39:47;18.73;;;9.70;;
56911;SDS011;42800;53.928;27.662;2024-01-30T01:42:13;13.40;;;7.88;;
56911;SDS011;42800;53.928;27.662;2024-01-30T01:44:39;12.90;;;7.70;;
56911;SDS011;42800;53.928;27.662;2024-01-30T01:47:06;16.27;;;8.00;;
56911;SDS011;42800;53.928;27.662;2024-01-30T01:49:32;13.15;;;7.82;;
56911;SDS011;42800;53.928;27.662;2024-01-30T01:51:58;14.40;;;8.05;;
56911;SDS011;42800;53.928;27.662;2024-01-30T01:54:25;8.15;;;5.88;;
56911;SDS011;42800;53.928;27.662;2024-01-30T01:56:52;15.88;;;9.55;;
56911;SDS011;42800;53.928;27.662;2024-01-30T01:59:20;14.70;;;9.32;;
56911;SDS011;42800;53.928;27.662;2024-01-30T02:01:47;12.50;;;7.35;;
56911;SDS011;42800;53.928;27.662;2024-01-30T02:04:14;18.80;;;9.68;;
56911;SDS011;42800;53.928;27.662;2024-01-30T02:06:41;20.13;;;8.75;;
56911;SDS011;42800;53.928;27.662;2024-01-30T02:09:08;14.43;;;8.85;;
56911;SDS011;42800;53.928;27.662;2024-01-30T02:11:34;17.55;;;9.25;;
56911;SDS011;42800;53.928;27.662;2024-01-30T02:14:02;14.40;;;9.02;;
56911;SDS011;42800;53.928;27.662;2024-01-30T02:16:28;16.45;;;9.23;;
56911;SDS011;42800;53.928;27.662;2024-01-30T02:18:55;16.10;;;8.38;;
56911;SDS011;42800;53.928;27.662;2024-01-30T02:21:21;18.27;;;9.18;;
56911;SDS011;42800;53.928;27.662;2024-01-30T02:23:48;14.88;;;9.05;;
56911;SDS011;42800;53.928;27.662;2024-01-30T02:26:15;14.20;;;9.05;;
56911;SDS011;42800;53.928;27.662;2024-01-30T02:28:41;19.40;;;9.93;;
56911;SDS011;42800;53.928;27.662;2024-01-30T02:31:07;17.17;;;9.85;;
56911;SDS011;42800;53.928;27.662;2024-01-30T02:33:33;17.88;;;10.30;;
56911;SDS011;42800;53.928;27.662;2024-01-30T02:35:59;18.30;;;9.50;;
56911;SDS011;42800;53.928;27.662;2024-01-30T02:38:26;20.02;;;10.38;;
56911;SDS011;42800;53.928;27.662;2024-01-30T02:40:52;19.27;;;10.32;;
56911;SDS011;42800;53.928;27.662;2024-01-30T02:43:18;19.98;;;10.50;;
56911;SDS011;42800;53.928;27.662;2024-01-30T02:45:44;20.48;;;10.57;;
56911;SDS011;42800;53.928;27.662;2024-01-30T02:48:10;20.95;;;10.43;;
56911;SDS011;42800;53.928;27.662;2024-01-30T02:50:36;17.35;;;10.13;;
56911;SDS011;42800;53.928;27.662;2024-01-30T02:53:02;18.55;;;10.73;;
56911;SDS011;42800;53.928;27.662;2024-01-30T02:55:31;16.48;;;9.88;;
56911;SDS011;42800;53.928;27.662;2024-01-30T02:57:57;19.88;;;10.93;;
56911;SDS011;42800;53.928;27.662;2024-01-30T03:00:23;16.80;;;9.75;;
56911;SDS011;42800;53.928;27.662;2024-01-30T03:02:49;18.40;;;9.85;;
56911;SDS011;42800;53.928;27.662;2024-01-30T03:05:15;18.38;;;9.43;;
56911;SDS011;42800;53.928;27.662;2024-01-30T03:07:41;18.65;;;10.27;;
56911;SDS011;42800;53.928;27.662;2024-01-30T03:10:08;19.35;;;10.52;;
56911;SDS011;42800;53.928;27.662;2024-01-30T03:12:34;17.83;;;10.48;;
56911;SDS011;42800;53.928;27.662;2024-01-30T03:15:00;24.25;;;12.27;;
56911;SDS011;42800;53.928;27.662;2024-01-30T03:17:27;22.95;;;10.45;;
56911;SDS011;42800;53.928;27.662;2024-01-30T03:19:53;19.95;;;10.23;;
56911;SDS011;42800;53.928;27.662;2024-01-30T03:22:19;17.48;;;10.40;;
56911;SDS011;42800;53.928;27.662;2024-01-30T03:24:45;20.58;;;10.85;;
56911;SDS011;42800;53.928;27.662;2024-01-30T03:27:11;22.85;;;11.40;;
56911;SDS011;42800;53.928;27.662;2024-01-30T03:29:38;19.52;;;10.82;;
56911;SDS011;42800;53.928;27.662;2024-01-30T03:32:04;22.98;;;11.05;;
56911;SDS011;42800;53.928;27.662;2024-01-30T03:34:30;16.70;;;10.20;;
56911;SDS011;42800;53.928;27.662;2024-01-30T03:36:56;22.17;;;10.95;;
56911;SDS011;42800;53.928;27.662;2024-01-30T03:39:23;20.08;;;11.13;;
56911;SDS011;42800;53.928;27.662;2024-01-30T03:41:49;18.05;;;10.55;;
56911;SDS011;42800;53.928;27.662;2024-01-30T03:44:15;20.38;;;11.38;;
56911;SDS011;42800;53.928;27.662;2024-01-30T03:46:42;19.90;;;12.10;;
56911;SDS011;42800;53.928;27.662;2024-01-30T03:49:09;18.67;;;11.65;;
56911;SDS011;42800;53.928;27.662;2024-01-30T03:51:35;22.10;;;12.32;;
56911;SDS011;42800;53.928;27.662;2024-01-30T03:54:01;21.00;;;10.65;;
56911;SDS011;42800;53.928;27.662;2024-01-30T03:56:27;20.55;;;11.77;;
56911;SDS011;42800;53.928;27.662;2024-01-30T03:58:53;23.58;;;11.73;;
56911;SDS011;42800;53.928;27.662;2024-01-30T04:01:21;22.20;;;12.48;;
56911;SDS011;42800;53.928;27.662;2024-01-30T04:03:47;21.83;;;10.60;;
56911;SDS011;42800;53.928;27.662;2024-01-30T04:06:13;17.10;;;11.15;;
56911;SDS011;42800;53.928;27.662;2024-01-30T04:08:40;18.77;;;11.18;;
56911;SDS011;42800;53.928;27.662;2024-01-30T04:11:06;19.38;;;11.65;;
56911;SDS011;42800;53.928;27.662;2024-01-30T04:13:32;25.30;;;12.52;;
56911;SDS011;42800;53.928;27.662;2024-01-30T04:15:58;21.80;;;12.27;;
56911;SDS011;42800;53.928;27.662;2024-01-30T04:18:25;23.02;;;12.30;;
56911;SDS011;42800;53.928;27.662;2024-01-30T04:20:51;30.42;;;15.40;;
56911;SDS011;42800;53.928;27.662;2024-01-30T04:23:17;26.23;;;12.93;;
56911;SDS011;42800;53.928;27.662;2024-01-30T04:25:44;24.02;;;13.40;;
56911;SDS011;42800;53.928;27.662;2024-01-30T04:28:10;23.52;;;12.73;;
56911;SDS011;42800;53.928;27.662;2024-01-30T04:30:37;23.38;;;13.57;;
56911;SDS011;42800;53.928;27.662;2024-01-30T04:33:03;26.20;;;13.50;;
56911;SDS011;42800;53.928;27.662;2024-01-30T04:35:29;34.97;;;14.32;;
56911;SDS011;42800;53.928;27.662;2024-01-30T04:37:56;29.67;;;13.95;;
56911;SDS011;42800;53.928;27.662;2024-01-30T04:40:22;24.35;;;13.15;;
56911;SDS011;42800;53.928;27.662;2024-01-30T04:42:49;25.63;;;14.20;;
56911;SDS011;42800;53.928;27.662;2024-01-30T04:45:15;30.50;;;14.63;;
56911;SDS011;42800;53.928;27.662;2024-01-30T04:47:41;23.73;;;12.70;;
56911;SDS011;42800;53.928;27.662;2024-01-30T04:50:08;31.85;;;15.48;;
56911;SDS011;42800;53.928;27.662;2024-01-30T04:52:34;29.50;;;15.05;;
56911;SDS011;42800;53.928;27.662;2024-01-30T04:55:01;36.90;;;15.50;;
56911;SDS011;42800;53.928;27.662;2024-01-30T04:57:28;28.40;;;14.68;;
56911;SDS011;42800;53.928;27.662;2024-01-30T04:59:54;33.22;;;16.55;;
56911;SDS011;42800;53.928;27.662;2024-01-30T05:02:20;35.13;;;17.13;;
56911;SDS011;42800;53.928;27.662;2024-01-30T05:04:46;29.55;;;16.38;;
56911;SDS011;42800;53.928;27.662;2024-01-30T05:07:12;30.50;;;15.48;;
56911;SDS011;42800;53.928;27.662;2024-01-30T05:09:39;31.60;;;15.55;;
56911;SDS011;42800;53.928;27.662;2024-01-30T05:12:06;40.13;;;17.90;;
56911;SDS011;42800;53.928;27.662;2024-01-30T05:14:32;29.20;;;16.08;;
56911;SDS011;42800;53.928;27.662;2024-01-30T05:16:59;29.13;;;15.70;;
56911;SDS011;42800;53.928;27.662;2024-01-30T05:19:25;35.90;;;16.50;;
56911;SDS011;42800;53.928;27.662;2024-01-30T05:21:51;33.97;;;14.90;;
56911;SDS011;42800;53.928;27.662;2024-01-30T05:24:17;29.17;;;14.43;;
56911;SDS011;42800;53.928;27.662;2024-01-30T05:26:43;27.10;;;14.73;;
56911;SDS011;42800;53.928;27.662;2024-01-30T05:29:10;25.63;;;13.57;;
56911;SDS011;42800;53.928;27.662;2024-01-30T05:31:36;34.70;;;13.93;;
56911;SDS011;42800;53.928;27.662;2024-01-30T05:34:02;38.28;;;15.13;;
56911;SDS011;42800;53.928;27.662;2024-01-30T05:36:28;30.92;;;14.88;;
56911;SDS011;42800;53.928;27.662;2024-01-30T05:38:55;35.10;;;15.55;;
56911;SDS011;42800;53.928;27.662;2024-01-30T05:41:21;28.90;;;15.02;;
56911;SDS011;42800;53.928;27.662;2024-01-30T05:43:47;38.17;;;15.95;;
56911;SDS011;42800;53.928;27.662;2024-01-30T05:46:14;35.30;;;16.50;;
56911;SDS011;42800;53.928;27.662;2024-01-30T05:48:40;34.33;;;15.95;;
56911;SDS011;42800;53.928;27.662;2024-01-30T05:51:06;35.83;;;15.57;;
56911;SDS011;42800;53.928;27.662;2024-01-30T05:53:33;35.90;;;15.73;;
56911;SDS011;42800;53.928;27.662;2024-01-30T05:56:00;30.27;;;13.90;;
56911;SDS011;42800;53.928;27.662;2024-01-30T05:58:27;28.05;;;13.88;;
56911;SDS011;42800;53.928;27.662;2024-01-30T06:00:53;37.47;;;16.13;;
56911;SDS011;42800;53.928;27.662;2024-01-30T06:03:20;37.65;;;15.80;;
56911;SDS011;42800;53.928;27.662;2024-01-30T06:05:46;36.05;;;16.08;;
56911;SDS011;42800;53.928;27.662;2024-01-30T06:08:12;25.75;;;15.15;;
56911;SDS011;42800;53.928;27.662;2024-01-30T06:10:39;36.00;;;15.77;;
56911;SDS011;42800;53.928;27.662;2024-01-30T06:13:05;33.03;;;16.20;;
56911;SDS011;42800;53.928;27.662;2024-01-30T06:15:32;32.42;;;16.50;;
56911;SDS011;42800;53.928;27.662;2024-01-30T06:17:58;42.58;;;16.33;;
56911;SDS011;42800;53.928;27.662;2024-01-30T06:20:25;34.67;;;16.50;;
56911;SDS011;42800;53.928;27.662;2024-01-30T06:22:51;30.48;;;15.75;;
56911;SDS011;42800;53.928;27.662;2024-01-30T06:25:18;36.00;;;16.35;;
56911;SDS011;42800;53.928;27.662;2024-01-30T06:27:44;34.00;;;16.05;;
56911;SDS011;42800;53.928;27.662;2024-01-30T06:30:11;37.38;;;15.23;;
56911;SDS011;42800;53.928;27.662;2024-01-30T06:32:38;33.33;;;16.00;;
56911;SDS011;42800;53.928;27.662;2024-01-30T06:35:04;41.15;;;17.67;;
56911;SDS011;42800;53.928;27.662;2024-01-30T06:37:32;37.22;;;17.65;;
56911;SDS011;42800;53.928;27.662;2024-01-30T06:39:58;30.77;;;16.02;;
56911;SDS011;42800;53.928;27.662;2024-01-30T06:42:24;41.35;;;15.02;;
56911;SDS011;42800;53.928;27.662;2024-01-30T06:44:50;33.30;;;15.70;;
56911;SDS011;42800;53.928;27.662;2024-01-30T06:47:16;32.08;;;15.25;;
56911;SDS011;42800;53.928;27.662;2024-01-30T06:49:42;30.35;;;14.98;;
56911;SDS011;42800;53.928;27.662;2024-01-30T06:52:09;30.13;;;14.10;;
56911;SDS011;42800;53.928;27.662;2024-01-30T06:54:35;33.53;;;15.38;;
56911;SDS011;42800;53.928;27.662;2024-01-30T06:57:01;33.88;;;13.95;;
56911;SDS011;42800;53.928;27.662;2024-01-30T06:59:28;27.83;;;14.45;;
56911;SDS011;42800;53.928;27.662;2024-01-30T07:01:54;25.10;;;13.57;;
56911;SDS011;42800;53.928;27.662;2024-01-30T07:04:20;25.63;;;13.73;;
56911;SDS011;42800;53.928;27.662;2024-01-30T07:06:46;23.10;;;14.35;;
56911;SDS011;42800;53.928;27.662;2024-01-30T07:09:12;23.40;;;13.75;;
56911;SDS011;42800;53.928;27.662;2024-01-30T07:11:39;28.77;;;14.10;;
56911;SDS011;42800;53.928;27.662;2024-01-30T07:14:05;27.20;;;13.98;;
56911;SDS011;42800;53.928;27.662;2024-01-30T07:16:32;26.77;;;14.05;;
56911;SDS011;42800;53.928;27.662;2024-01-30T07:18:58;23.75;;;12.27;;
56911;SDS011;42800;53.928;27.662;2024-01-30T07:21:24;20.95;;;11.90;;
56911;SDS011;42800;53.928;27.662;2024-01-30T07:23:53;24.85;;;11.27;;
56911;SDS011;42800;53.928;27.662;2024-01-30T07:26:19;21.48;;;11.93;;
56911;SDS011;42800;53.928;27.662;2024-01-30T07:28:46;23.48;;;12.73;;
56911;SDS011;42800;53.928;27.662;2024-01-30T07:31:12;19.45;;;10.05;;
56911;SDS011;42800;53.928;27.662;2024-01-30T07:33:38;21.90;;;11.55;;
56911;SDS011;42800;53.928;27.662;2024-01-30T07:36:05;19.27;;;11.43;;
56911;SDS011;42800;53.928;27.662;2024-01-30T07:38:31;22.67;;;11.88;;
56911;SDS011;42800;53.928;27.662;2024-01-30T07:40:57;22.90;;;12.30;;
56911;SDS011;42800;53.928;27.662;2024-01-30T07:43:23;41.15;;;12.82;;
56911;SDS011;42800;53.928;27.662;2024-01-30T07:45:50;26.92;;;11.70;;
56911;SDS011;42800;53.928;27.662;2024-01-30T07:48:16;25.90;;;12.45;;
56911;SDS011;42800;53.928;27.662;2024-01-30T07:50:42;29.70;;;10.82;;
56911;SDS011;42800;53.928;27.662;2024-01-30T07:53:08;23.73;;;10.88;;
56911;SDS011;42800;53.928;27.662;2024-01-30T07:55:34;23.20;;;11.35;;
56911;SDS011;42800;53.928;27.662;2024-01-30T07:58:01;23.90;;;12.10;;
56911;SDS011;42800;53.928;27.662;2024-01-30T08:00:28;24.13;;;12.75;;
56911;SDS011;42800;53.928;27.662;2024-01-30T08:02:55;19.30;;;11.05;;
56911;SDS011;42800;53.928;27.662;2024-01-30T08:05:21;23.77;;;10.73;;
56911;SDS011;42800;53.928;27.662;2024-01-30T08:07:48;25.98;;;12.18;;
56911;SDS011;42800;53.928;27.662;2024-01-30T08:10:14;19.73;;;10.70;;
56911;SDS011;42800;53.928;27.662;2024-01-30T08:12:41;24.95;;;11.82;;
56911;SDS011;42800;53.928;27.662;2024-01-30T08:15:08;23.00;;;10.52;;
56911;SDS011;42800;53.928;27.662;2024-01-30T08:17:34;26.30;;;11.63;;
56911;SDS011;42800;53.928;27.662;2024-01-30T08:20:01;19.95;;;11.32;;
56911;SDS011;42800;53.928;27.662;2024-01-30T08:22:29;20.23;;;10.52;;
56911;SDS011;42800;53.928;27.662;2024-01-30T08:24:55;22.90;;;10.18;;
56911;SDS011;42800;53.928;27.662;2024-01-30T08:27:21;21.20;;;10.80;;
56911;SDS011;42800;53.928;27.662;2024-01-30T08:29:47;16.45;;;9.00;;
56911;SDS011;42800;53.928;27.662;2024-01-30T08:32:15;21.48;;;8.80;;
56911;SDS011;42800;53.928;27.662;2024-01-30T08:34:41;17.73;;;9.02;;
56911;SDS011;42800;53.928;27.662;2024-01-30T08:37:08;20.65;;;9.20;;
56911;SDS011;42800;53.928;27.662;2024-01-30T08:39:34;21.05;;;9.88;;
56911;SDS011;42800;53.928;27.662;2024-01-30T08:42:00;13.55;;;8.23;;
56911;SDS011;42800;53.928;27.662;2024-01-30T08:44:26;20.58;;;10.60;;
56911;SDS011;42800;53.928;27.662;2024-01-30T08:46:53;19.65;;;9.82;;
56911;SDS011;42800;53.928;27.662;2024-01-30T08:49:19;16.15;;;9.63;;
56911;SDS011;42800;53.928;27.662;2024-01-30T08:51:45;20.20;;;10.73;;
56911;SDS011;42800;53.928;27.662;2024-01-30T08:54:13;14.02;;;9.00;;
56911;SDS011;42800;53.928;27.662;2024-01-30T08:56:39;16.38;;;9.35;;
56911;SDS011;42800;53.928;27.662;2024-01-30T08:59:05;22.52;;;10.05;;
56911;SDS011;42800;53.928;27.662;2024-01-30T09:01:31;23.45;;;11.32;;
56911;SDS011;42800;53.928;27.662;2024-01-30T09:03:57;24.60;;;11.77;;
56911;SDS011;42800;53.928;27.662;2024-01-30T09:06:25;22.33;;;12.05;;
56911;SDS011;42800;53.928;27.662;2024-01-30T09:08:54;25.85;;;12.65;;
56911;SDS011;42800;53.928;27.662;2024-01-30T09:11:21;30.42;;;12.85;;
56911;SDS011;42800;53.928;27.662;2024-01-30T09:13:49;37.65;;;14.25;;
56911;SDS011;42800;53.928;27.662;2024-01-30T09:16:15;31.00;;;14.02;;
56911;SDS011;42800;53.928;27.662;2024-01-30T09:18:42;29.80;;;13.07;;
56911;SDS011;42800;53.928;27.662;2024-01-30T09:21:11;30.90;;;11.10;;
56911;SDS011;42800;53.928;27.662;2024-01-30T09:23:40;30.02;;;13.57;;
56911;SDS011;42800;53.928;27.662;2024-01-30T09:26:09;24.00;;;11.77;;
56911;SDS011;42800;53.928;27.662;2024-01-30T09:28:46;36.33;;;13.15;;
56911;SDS011;42800;53.928;27.662;2024-01-30T09:31:15;23.33;;;11.07;;
56911;SDS011;42800;53.928;27.662;2024-01-30T09:33:44;25.70;;;11.00;;
56911;SDS011;42800;53.928;27.662;2024-01-30T09:36:16;23.05;;;11.75;;
56911;SDS011;42800;53.928;27.662;2024-01-30T09:38:45;20.70;;;10.85;;
56911;SDS011;42800;53.928;27.662;2024-01-30T09:41:13;22.88;;;11.15;;
56911;SDS011;42800;53.928;27.662;2024-01-30T09:43:40;23.58;;;11.30;;
56911;SDS011;42800;53.928;27.662;2024-01-30T09:46:12;32.58;;;12.85;;
56911;SDS011;42800;53.928;27.662;2024-01-30T09:48:41;23.30;;;11.32;;
56911;SDS011;42800;53.928;27.662;2024-01-30T09:51:08;29.02;;;13.48;;
56911;SDS011;42800;53.928;27.662;2024-01-30T09:53:34;35.33;;;16.00;;
56911;SDS011;42800;53.928;27.662;2024-01-30T09:56:02;29.80;;;14.70;;
56911;SDS011;42800;53.928;27.662;2024-01-30T09:58:30;31.15;;;15.43;;
56911;SDS011;42800;53.928;27.662;2024-01-30T10:00:56;33.15;;;15.65;;
56911;SDS011;42800;53.928;27.662;2024-01-30T10:03:23;36.05;;;15.45;;
56911;SDS011;42800;53.928;27.662;2024-01-30T10:05:50;39.78;;;15.65;;
56911;SDS011;42800;53.928;27.662;2024-01-30T10:08:18;33.10;;;15.35;;
56911;SDS011;42800;53.928;27.662;2024-01-30T10:10:45;33.28;;;14.10;;
56911;SDS011;42800;53.928;27.662;2024-01-30T10:13:12;29.38;;;13.05;;
56911;SDS011;42800;53.928;27.662;2024-01-30T10:15:38;32.17;;;14.20;;
56911;SDS011;42800;53.928;27.662;2024-01-30T10:18:05;32.95;;;13.85;;
56911;SDS011;42800;53.928;27.662;2024-01-30T10:20:33;31.52;;;15.02;;
56911;SDS011;42800;53.928;27.662;2024-01-30T10:23:00;32.28;;;14.95;;
56911;SDS011;42800;53.928;27.662;2024-01-30T10:25:27;34.17;;;14.50;;
56911;SDS011;42800;53.928;27.662;2024-01-30T10:27:53;25.95;;;12.88;;
56911;SDS011;42800;53.928;27.662;2024-01-30T10:30:20;23.25;;;12.85;;
56911;SDS011;42800;53.928;27.662;2024-01-30T10:32:46;32.20;;;12.30;;
56911;SDS011;42800;53.928;27.662;2024-01-30T10:35:13;25.33;;;12.52;;
56911;SDS011;42800;53.928;27.662;2024-01-30T10:37:41;24.77;;;12.90;;
56911;SDS011;42800;53.928;27.662;2024-01-30T10:40:11;24.98;;;11.45;;
56911;SDS011;42800;53.928;27.662;2024-01-30T10:42:41;21.60;;;10.77;;
56911;SDS011;42800;53.928;27.662;2024-01-30T10:45:10;22.23;;;11.52;;
56911;SDS011;42800;53.928;27.662;2024-01-30T10:47:39;24.17;;;12.77;;
56911;SDS011;42800;53.928;27.662;2024-01-30T10:50:07;23.40;;;12.50;;
56911;SDS011;42800;53.928;27.662;2024-01-30T10:52:35;28.52;;;13.20;;
56911;SDS011;42800;53.928;27.662;2024-01-30T10:55:03;25.65;;;13.15;;
56911;SDS011;42800;53.928;27.662;2024-01-30T10:57:31;24.60;;;12.80;;
56911;SDS011;42800;53.928;27.662;2024-01-30T11:00:00;25.95;;;13.00;;
56911;SDS011;42800;53.928;27.662;2024-01-30T11:02:30;24.85;;;12.15;;
56911;SDS011;42800;53.928;27.662;2024-01-30T11:04:58;26.45;;;13.02;;
56911;SDS011;42800;53.928;27.662;2024-01-30T11:07:26;31.10;;;13.82;;
56911;SDS011;42800;53.928;27.662;2024-01-30T11:09:53;27.42;;;14.23;;
56911;SDS011;42800;53.928;27.662;2024-01-30T11:12:27;25.80;;;13.57;;
56911;SDS011;42800;53.928;27.662;2024-01-30T11:15:04;27.10;;;13.05;;
56911;SDS011;42800;53.928;27.662;2024-01-30T11:17:42;25.27;;;12.82;;
56911;SDS011;42800;53.928;27.662;2024-01-30T11:20:12;25.08;;;13.48;;
56911;SDS011;42800;53.928;27.662;2024-01-30T11:22:41;20.58;;;12.18;;
56911;SDS011;42800;53.928;27.662;2024-01-30T11:25:12;24.88;;;13.18;;
56911;SDS011;42800;53.928;27.662;2024-01-30T11:27:41;25.80;;;12.10;;
56911;SDS011;42800;53.928;27.662;2024-01-30T11:30:08;26.25;;;12.20;;
56911;SDS011;42800;53.928;27.662;2024-01-30T11:32:35;24.70;;;12.35;;
56911;SDS011;42800;53.928;27.662;2024-01-30T11:35:03;23.80;;;12.18;;
56911;SDS011;42800;53.928;27.662;2024-01-30T11:37:30;25.35;;;13.70;;
56911;SDS011;42800;53.928;27.662;2024-01-30T11:39:57;27.10;;;14.43;;
56911;SDS011;42800;53.928;27.662;2024-01-30T11:42:24;20.17;;;12.55;;
56911;SDS011;42800;53.928;27.662;2024-01-30T11:44:53;28.67;;;13.95;;
56911;SDS011;42800;53.928;27.662;2024-01-30T11:47:19;23.60;;;11.82;;
56911;SDS011;42800;53.928;27.662;2024-01-30T11:49:46;24.90;;;12.10;;
56911;SDS011;42800;53.928;27.662;2024-01-30T11:52:13;27.23;;;13.02;;
56911;SDS011;42800;53.928;27.662;2024-01-30T11:54:39;24.05;;;12.25;;
56911;SDS011;42800;53.928;27.662;2024-01-30T11:57:06;27.30;;;12.65;;
56911;SDS011;42800;53.928;27.662;2024-01-30T11:59:32;30.98;;;12.20;;
56911;SDS011;42800;53.928;27.662;2024-01-30T12:01:59;20.70;;;11.00;;
56911;SDS011;42800;53.928;27.662;2024-01-30T12:04:27;25.30;;;11.45;;
56911;SDS011;42800;53.928;27.662;2024-01-30T12:06:54;20.45;;;11.95;;
56911;SDS011;42800;53.928;27.662;2024-01-30T12:09:21;24.30;;;11.77;;
56911;SDS011;42800;53.928;27.662;2024-01-30T12:11:48;21.20;;;10.38;;
56911;SDS011;42800;53.928;27.662;2024-01-30T12:14:15;22.45;;;10.90;;
56911;SDS011;42800;53.928;27.662;2024-01-30T12:16:42;24.65;;;13.30;;
56911;SDS011;42800;53.928;27.662;2024-01-30T12:19:09;23.27;;;12.30;;
56911;SDS011;42800;53.928;27.662;2024-01-30T12:21:37;26.55;;;12.10;;
56911;SDS011;42800;53.928;27.662;2024-01-30T12:24:04;26.58;;;13.23;;
56911;SDS011;42800;53.928;27.662;2024-01-30T12:26:32;26.23;;;13.68;;
56911;SDS011;42800;53.928;27.662;2024-01-30T12:28:58;25.75;;;13.13;;
56911;SDS011;42800;53.928;27.662;2024-01-30T12:31:26;28.63;;;15.32;;
56911;SDS011;42800;53.928;27.662;2024-01-30T12:33:53;25.50;;;14.25;;
56911;SDS011;42800;53.928;27.662;2024-01-30T12:36:21;33.78;;;14.20;;
56911;SDS011;42800;53.928;27.662;2024-01-30T12:38:48;30.02;;;16.10;;
56911;SDS011;42800;53.928;27.662;2024-01-30T12:41:14;40.25;;;15.63;;
56911;SDS011;42800;53.928;27.662;2024-01-30T12:43:41;34.03;;;16.15;;
56911;SDS011;42800;53.928;27.662;2024-01-30T12:46:08;39.92;;;16.10;;
56911;SDS011;42800;53.928;27.662;2024-01-30T12:48:34;34.75;;;13.02;;
56911;SDS011;42800;53.928;27.662;2024-01-30T12:51:00;35.28;;;15.35;;
56911;SDS011;42800;53.928;27.662;2024-01-30T12:53:28;36.92;;;14.73;;
56911;SDS011;42800;53.928;27.662;2024-01-30T12:55:54;30.60;;;13.80;;
56911;SDS011;42800;53.928;27.662;2024-01-30T12:58:20;32.22;;;15.57;;
56911;SDS011;42800;53.928;27.662;2024-01-30T13:00:47;35.72;;;15.25;;
56911;SDS011;42800;53.928;27.662;2024-01-30T13:03:13;25.80;;;13.65;;
56911;SDS011;42800;53.928;27.662;2024-01-30T13:05:39;26.02;;;13.65;;
56911;SDS011;42800;53.928;27.662;2024-01-30T13:08:06;22.73;;;12.57;;
56911;SDS011;42800;53.928;27.662;2024-01-30T13:10:33;24.77;;;13.25;;
56911;SDS011;42800;53.928;27.662;2024-01-30T13:12:59;26.00;;;12.10;;
56911;SDS011;42800;53.928;27.662;2024-01-30T13:15:26;24.35;;;12.02;;
56911;SDS011;42800;53.928;27.662;2024-01-30T13:17:52;28.15;;;14.15;;
56911;SDS011;42800;53.928;27.662;2024-01-30T13:20:19;26.77;;;14.00;;
56911;SDS011;42800;53.928;27.662;2024-01-30T13:22:47;25.00;;;12.85;;
56911;SDS011;42800;53.928;27.662;2024-01-30T13:25:14;28.85;;;14.43;;
56911;SDS011;42800;53.928;27.662;2024-01-30T13:27:41;24.27;;;13.57;;
56911;SDS011;42800;53.928;27.662;2024-01-30T13:30:08;27.25;;;14.23;;
56911;SDS011;42800;53.928;27.662;2024-01-30T13:32:34;27.80;;;13.35;;
56911;SDS011;42800;53.928;27.662;2024-01-30T13:35:01;30.25;;;15.02;;
56911;SDS011;42800;53.928;27.662;2024-01-30T13:37:27;27.88;;;14.35;;
56911;SDS011;42800;53.928;27.662;2024-01-30T13:39:54;33.58;;;15.95;;
56911;SDS011;42800;53.928;27.662;2024-01-30T13:42:20;29.40;;;13.82;;
56911;SDS011;42800;53.928;27.662;2024-01-30T13:44:47;30.55;;;11.80;;
56911;SDS011;42800;53.928;27.662;2024-01-30T13:47:13;25.67;;;12.90;;
56911;SDS011;42800;53.928;27.662;2024-01-30T13:49:40;27.05;;;11.40;;
56911;SDS011;42800;53.928;27.662;2024-01-30T13:52:06;26.85;;;12.55;;
56911;SDS011;42800;53.928;27.662;2024-01-30T13:54:33;30.55;;;12.80;;
56911;SDS011;42800;53.928;27.662;2024-01-30T13:56:59;21.58;;;11.43;;
56911;SDS011;42800;53.928;27.662;2024-01-30T13:59:26;23.38;;;11.07;;
56911;SDS011;42800;53.928;27.662;2024-01-30T14:01:53;22.42;;;10.68;;
56911;SDS011;42800;53.928;27.662;2024-01-30T14:04:19;28.45;;;13.25;;
56911;SDS011;42800;53.928;27.662;2024-01-30T14:06:46;29.23;;;11.90;;
56911;SDS011;42800;53.928;27.662;2024-01-30T14:09:12;26.80;;;12.82;;